Time;durP1;ratioP1;P1;durP2;ratioP2;P2;SDS_P1;SDS_P2;PMS_P1;PMS_P2;Temp;Humidity;BMP_temperature;BMP_pressure;BME280_temperature;BME280_humidity;BME280_pressure;Samples;Min_cycle;Max_cycle;Signal;HPM_P1;HPM_P2
2023/09/12 00:00:55;;;;;;;10.17;7.47;;;20.10;99.90;;;;;;4848633;29;20434;-82
2023/09/12 00:56:45;;;;;;;22.57;8.20;;;19.20;99.90;;;;;;5134493;24;20479;-92
2023/09/12 00:59:11;;;;;;;20.33;9.87;;;19.10;99.90;;;;;;4844092;29;20517;-92
2023/09/12 01:01:36;;;;;;;10.97;9.17;;;19.00;99.90;;;;;;4843600;29;20428;-92
2023/09/12 01:04:03;;;;;;;13.87;9.80;;;19.00;99.90;;;;;;4859069;29;20422;-92
2023/09/12 01:06:31;;;;;;;10.70;9.10;;;18.90;99.90;;;;;;4844707;29;20177;-91
2023/09/12 01:08:57;;;;;;;11.13;8.90;;;18.90;99.90;;;;;;4843328;29;20400;-91
2023/09/12 01:11:24;;;;;;;13.80;11.03;;;18.90;99.90;;;;;;4844377;29;21036;-91
2023/09/12 01:13:49;;;;;;;16.43;10.10;;;18.90;99.90;;;;;;4843082;29;20185;-91
2023/09/12 01:16:15;;;;;;;12.27;10.20;;;18.80;99.90;;;;;;4843209;29;20420;-91
2023/09/12 01:18:42;;;;;;;18.17;11.40;;;18.80;99.90;;;;;;4843030;29;20220;-91
2023/09/12 01:21:19;;;;;;;12.17;10.93;;;18.80;99.90;;;;;;4843209;29;20268;-91
2023/09/12 01:24:07;;;;;;;15.97;11.47;;;18.80;99.90;;;;;;4843699;29;20441;-91
2023/09/12 01:27:11;;;;;;;19.80;11.63;;;18.80;99.90;;;;;;4843044;29;20450;-91
2023/09/12 01:29:38;;;;;;;14.70;10.70;;;18.70;99.90;;;;;;4843791;29;20429;-90
2023/09/12 01:32:04;;;;;;;14.33;11.30;;;18.70;99.90;;;;;;4842966;29;20432;-91
2023/09/12 01:34:30;;;;;;;14.33;10.23;;;18.70;99.90;;;;;;4828079;29;20400;-90
2023/09/12 01:36:55;;;;;;;17.00;9.87;;;18.60;99.90;;;;;;4844143;29;20196;-90
2023/09/12 01:39:21;;;;;;;13.50;10.70;;;18.60;99.90;;;;;;4827791;29;20212;-91
2023/09/12 01:41:48;;;;;;;13.00;10.43;;;18.60;99.90;;;;;;4812377;29;20265;-90
2023/09/12 01:44:14;;;;;;;12.43;10.20;;;18.60;99.90;;;;;;4843758;29;20210;-90
2023/09/12 01:46:42;;;;;;;16.83;11.27;;;18.70;99.90;;;;;;4812152;29;20465;-90
2023/09/12 01:49:09;;;;;;;14.47;12.00;;;18.60;99.90;;;;;;4842728;29;20392;-90
2023/09/12 01:51:35;;;;;;;13.33;11.50;;;18.70;99.90;;;;;;4842409;29;20403;-90
2023/09/12 01:54:03;;;;;;;14.53;10.97;;;18.50;99.90;;;;;;4842891;29;20455;-91
2023/09/12 01:56:29;;;;;;;23.63;13.77;;;18.50;99.90;;;;;;4842726;29;20488;-88
2023/09/12 01:58:56;;;;;;;14.70;12.23;;;18.50;99.90;;;;;;4827770;29;20994;-91
2023/09/12 02:01:21;;;;;;;15.97;11.50;;;18.40;99.90;;;;;;4842728;29;20529;-91
2023/09/12 02:03:47;;;;;;;14.80;13.30;;;18.50;99.90;;;;;;4842461;29;20891;-91
2023/09/12 02:06:12;;;;;;;18.03;12.93;;;18.50;99.90;;;;;;4842488;29;20189;-90
2023/09/12 02:08:38;;;;;;;14.03;11.97;;;18.50;99.90;;;;;;4842625;29;20225;-90
2023/09/12 02:11:03;;;;;;;12.37;11.07;;;18.40;99.90;;;;;;4842908;29;20193;-91
2023/09/12 02:13:29;;;;;;;16.87;11.50;;;18.30;99.90;;;;;;4842615;29;20213;-91
2023/09/12 02:16:03;;;;;;;19.20;11.70;;;18.30;99.90;;;;;;4843474;29;20196;-91
2023/09/12 02:18:28;;;;;;;16.63;12.10;;;18.30;99.90;;;;;;4827581;29;20188;-91
2023/09/12 02:20:54;;;;;;;14.53;10.77;;;18.10;99.90;;;;;;4844159;29;20407;-91
2023/09/12 02:23:19;;;;;;;20.83;10.77;;;18.10;99.90;;;;;;4831523;29;20272;-91
2023/09/12 02:25:45;;;;;;;16.10;11.10;;;18.10;99.90;;;;;;4846180;29;20312;-91
2023/09/12 02:28:10;;;;;;;18.10;12.80;;;18.00;99.90;;;;;;4846202;29;20189;-91
2023/09/12 02:30:40;;;;;;;14.60;11.60;;;18.10;99.90;;;;;;4815322;29;20222;-91
2023/09/12 02:33:05;;;;;;;14.43;10.00;;;18.00;99.90;;;;;;4830952;29;20596;-91
2023/09/12 02:35:31;;;;;;;17.70;10.50;;;17.90;99.90;;;;;;4846453;29;20430;-89
2023/09/12 02:37:57;;;;;;;13.13;11.43;;;17.90;99.90;;;;;;4846071;29;20196;-91
2023/09/12 02:40:22;;;;;;;13.40;10.10;;;17.80;99.90;;;;;;4846838;29;20312;-91
2023/09/12 02:42:48;;;;;;;16.33;11.77;;;17.80;99.90;;;;;;4845695;29;20192;-91
2023/09/12 02:45:13;;;;;;;22.47;14.37;;;17.80;99.90;;;;;;4815118;29;20188;-90
2023/09/12 02:47:39;;;;;;;30.30;19.60;;;17.90;99.90;;;;;;4845746;29;20229;-90
2023/09/12 02:50:06;;;;;;;23.03;18.37;;;18.00;99.90;;;;;;4845461;29;20226;-91
2023/09/12 02:52:31;;;;;;;18.80;15.13;;;18.00;99.90;;;;;;4845911;29;20220;-90
2023/09/12 02:54:57;;;;;;;25.70;19.60;;;18.00;99.90;;;;;;4845652;29;20404;-90
2023/09/12 02:57:22;;;;;;;22.90;18.67;;;18.20;99.90;;;;;;4829782;29;20241;-90
2023/09/12 02:59:48;;;;;;;19.50;16.70;;;18.20;99.90;;;;;;4845387;29;20216;-91
2023/09/12 03:02:14;;;;;;;20.43;17.57;;;18.20;99.90;;;;;;4845149;29;20578;-90
2023/09/12 03:04:39;;;;;;;22.23;16.60;;;18.10;99.90;;;;;;4829335;29;20184;-90
2023/09/12 03:07:05;;;;;;;28.37;19.03;;;18.00;99.90;;;;;;4845602;29;20189;-90
2023/09/12 03:09:30;;;;;;;26.27;18.30;;;18.00;99.90;;;;;;4845445;29;20536;-90
2023/09/12 03:11:56;;;;;;;25.13;19.57;;;18.10;99.90;;;;;;4826750;29;20194;-91
2023/09/12 03:14:21;;;;;;;33.40;21.93;;;18.20;99.90;;;;;;4826806;29;20197;-90
2023/09/12 03:16:47;;;;;;;29.57;22.33;;;18.40;99.90;;;;;;4827220;29;20731;-90
2023/09/12 03:19:13;;;;;;;25.33;20.80;;;18.40;99.90;;;;;;4826248;29;20210;-89
2023/09/12 03:21:38;;;;;;;38.33;25.13;;;18.40;99.90;;;;;;4826443;29;20192;-90
2023/09/12 03:24:04;;;;;;;33.67;26.40;;;18.60;99.90;;;;;;4812179;29;20190;-90
2023/09/12 03:26:30;;;;;;;32.03;23.47;;;18.60;99.90;;;;;;4842252;29;20469;-91
2023/09/12 03:28:55;;;;;;;31.07;24.10;;;18.60;99.90;;;;;;4826470;29;20783;-91
2023/09/12 03:31:21;;;;;;;27.60;21.30;;;18.70;99.90;;;;;;4827245;29;20186;-90
2023/09/12 03:33:49;;;;;;;27.73;21.10;;;18.60;99.90;;;;;;4826490;29;20185;-90
2023/09/12 03:36:16;;;;;;;29.63;23.10;;;18.60;99.90;;;;;;4827317;29;20651;-91
2023/09/12 03:38:42;;;;;;;26.33;20.50;;;18.60;99.90;;;;;;4826151;29;20966;-91
2023/09/12 03:41:07;;;;;;;27.60;22.27;;;18.60;99.90;;;;;;4826371;29;20437;-90
2023/09/12 03:43:34;;;;;;;26.33;20.43;;;18.80;99.90;;;;;;4833992;29;20192;-91
2023/09/12 03:45:59;;;;;;;23.47;19.70;;;18.80;99.90;;;;;;4830009;29;20203;-90
2023/09/12 03:48:25;;;;;;;27.50;21.40;;;18.80;99.90;;;;;;4859844;29;20562;-90
2023/09/12 03:50:51;;;;;;;26.20;21.60;;;18.80;99.90;;;;;;4845204;29;20242;-90
2023/09/12 03:53:17;;;;;;;30.13;21.00;;;18.90;99.90;;;;;;4844321;29;20189;-91
2023/09/12 03:55:43;;;;;;;19.23;17.20;;;18.90;99.90;;;;;;4843757;29;20776;-90
2023/09/12 03:58:09;;;;;;;24.43;17.93;;;18.90;99.90;;;;;;4845818;29;20531;-90
2023/09/12 04:00:34;;;;;;;22.30;18.30;;;18.80;99.90;;;;;;4845330;29;20568;-90
2023/09/12 04:03:00;;;;;;;27.90;20.37;;;18.80;99.90;;;;;;4829115;29;20215;-90
2023/09/12 04:05:26;;;;;;;21.80;18.23;;;18.80;99.90;;;;;;4829519;29;20209;-91
2023/09/12 04:07:52;;;;;;;20.87;18.50;;;18.70;99.90;;;;;;4844058;29;20269;-90
2023/09/12 04:10:19;;;;;;;24.77;18.00;;;18.60;99.90;;;;;;4845855;29;20852;-91
2023/09/12 04:12:44;;;;;;;25.80;19.90;;;18.60;99.90;;;;;;4844556;29;20268;-90
2023/09/12 04:15:10;;;;;;;24.33;19.83;;;18.60;99.90;;;;;;4813827;29;20524;-90
2023/09/12 04:17:35;;;;;;;26.87;21.83;;;18.40;99.90;;;;;;4844827;29;20200;-90
2023/09/12 04:20:01;;;;;;;26.97;20.67;;;18.40;99.90;;;;;;4828679;29;20229;-90
2023/09/12 04:22:28;;;;;;;23.33;18.30;;;18.40;99.90;;;;;;4845101;29;20187;-91
2023/09/12 04:24:54;;;;;;;26.00;19.33;;;18.30;99.90;;;;;;4829099;29;20177;-90
2023/09/12 04:27:19;;;;;;;22.77;19.00;;;18.30;99.90;;;;;;4848886;29;20436;-90
2023/09/12 04:29:45;;;;;;;26.67;21.20;;;18.30;99.90;;;;;;4845481;29;20200;-91
2023/09/12 04:32:13;;;;;;;27.47;19.63;;;18.40;99.90;;;;;;4825589;29;20230;-91
2023/09/12 04:34:43;;;;;;;22.60;18.50;;;18.40;99.90;;;;;;4810588;29;20190;-90
2023/09/12 04:37:08;;;;;;;26.80;18.43;;;18.50;99.90;;;;;;4825923;29;20471;-91
2023/09/12 04:39:34;;;;;;;26.17;19.40;;;18.70;99.90;;;;;;4828569;29;20505;-90
2023/09/12 04:41:59;;;;;;;28.17;20.60;;;18.70;99.90;;;;;;4828316;29;20199;-90
2023/09/12 04:44:25;;;;;;;26.77;20.80;;;18.50;99.90;;;;;;4843331;29;20185;-90
2023/09/12 04:46:50;;;;;;;29.40;21.00;;;18.50;99.90;;;;;;4827940;29;20750;-90
2023/09/12 04:49:16;;;;;;;30.17;21.27;;;18.30;99.90;;;;;;4828750;29;20258;-90
2023/09/12 04:51:44;;;;;;;26.90;21.13;;;18.30;99.90;;;;;;4813430;29;20193;-90
2023/09/12 04:54:13;;;;;;;32.17;24.60;;;18.20;99.90;;;;;;4813672;29;20666;-91
2023/09/12 04:56:38;;;;;;;32.80;24.10;;;18.30;99.90;;;;;;4828515;29;20511;-91
2023/09/12 04:59:04;;;;;;;34.50;22.80;;;18.20;99.90;;;;;;4828533;29;20487;-90
2023/09/12 05:01:29;;;;;;;35.13;25.30;;;18.20;99.90;;;;;;4843814;29;20192;-90
2023/09/12 05:03:55;;;;;;;42.43;28.70;;;18.20;99.90;;;;;;4828007;29;20279;-90
2023/09/12 05:06:21;;;;;;;42.70;28.83;;;18.30;99.90;;;;;;4828145;29;20630;-90
2023/09/12 05:08:46;;;;;;;38.90;30.00;;;18.30;99.90;;;;;;4827763;29;20330;-90
2023/09/12 05:11:12;;;;;;;46.20;29.83;;;18.30;99.90;;;;;;4843045;29;20193;-90
2023/09/12 05:13:37;;;;;;;42.63;29.40;;;18.30;99.90;;;;;;4827943;29;20259;-90
2023/09/12 05:16:03;;;;;;;40.83;31.37;;;18.30;99.90;;;;;;4842962;29;20249;-90
2023/09/12 05:18:28;;;;;;;46.20;32.80;;;18.30;99.90;;;;;;4842839;29;20279;-90
2023/09/12 05:20:54;;;;;;;42.63;30.13;;;18.40;99.90;;;;;;4842388;29;20206;-90
2023/09/12 05:23:19;;;;;;;49.97;36.10;;;18.40;99.90;;;;;;4828140;29;20204;-90
2023/09/12 05:25:45;;;;;;;44.07;30.33;;;18.30;99.90;;;;;;4827894;29;20209;-89
2023/09/12 05:28:11;;;;;;;48.57;32.53;;;18.40;99.90;;;;;;4843093;29;20279;-90
2023/09/12 05:30:36;;;;;;;50.10;33.10;;;18.40;99.90;;;;;;4842934;29;20685;-90
2023/09/12 05:33:03;;;;;;;38.93;27.53;;;18.40;99.90;;;;;;4842728;29;20184;-90
2023/09/12 05:35:28;;;;;;;48.23;31.90;;;18.50;99.90;;;;;;4842968;29;20217;-90
2023/09/12 05:37:54;;;;;;;52.23;31.10;;;18.60;99.90;;;;;;4842555;29;20426;-90
2023/09/12 05:40:20;;;;;;;52.80;30.40;;;18.70;99.90;;;;;;4827759;29;20221;-90
2023/09/12 05:42:45;;;;;;;47.53;31.30;;;18.70;99.90;;;;;;4827163;29;20204;-89
2023/09/12 05:45:11;;;;;;;49.27;32.97;;;18.80;99.90;;;;;;4843231;29;20192;-90
2023/09/12 05:47:36;;;;;;;47.13;33.20;;;18.80;99.90;;;;;;4827574;29;20253;-90
2023/09/12 05:50:06;;;;;;;43.97;30.00;;;19.00;99.90;;;;;;4843049;29;20192;-90
2023/09/12 05:52:32;;;;;;;52.97;32.13;;;19.00;99.90;;;;;;4843196;29;20181;-90
2023/09/12 05:54:58;;;;;;;50.13;32.03;;;19.10;99.90;;;;;;4823719;29;20476;-90
2023/09/12 05:57:23;;;;;;;43.83;33.20;;;19.20;99.90;;;;;;4840217;29;20488;-90
2023/09/12 05:59:50;;;;;;;49.97;33.87;;;19.30;99.90;;;;;;4812457;29;20228;-90
2023/09/12 06:02:15;;;;;;;50.57;34.20;;;19.30;99.90;;;;;;4842681;29;20197;-92
2023/09/12 06:04:41;;;;;;;44.10;31.63;;;19.40;99.90;;;;;;4828918;29;20456;-90
2023/09/12 06:07:06;;;;;;;51.77;32.90;;;19.40;99.90;;;;;;4842409;29;20225;-89
2023/09/12 06:09:32;;;;;;;39.33;30.80;;;19.30;99.90;;;;;;4842096;29;20626;-89
2023/09/12 06:11:57;;;;;;;46.00;33.30;;;19.40;99.90;;;;;;4826883;29;20192;-89
2023/09/12 06:14:23;;;;;;;44.00;33.07;;;19.30;99.90;;;;;;4843138;29;20181;-89
2023/09/12 06:16:49;;;;;;;43.73;32.27;;;19.40;99.90;;;;;;4841771;29;20201;-90
2023/09/12 06:19:14;;;;;;;44.57;34.60;;;19.50;99.90;;;;;;4842299;29;20217;-89
2023/09/12 06:21:41;;;;;;;39.90;30.50;;;19.60;99.90;;;;;;4811534;29;20276;-90
2023/09/12 06:24:20;;;;;;;45.73;33.07;;;19.60;99.90;;;;;;4826928;29;20192;-89
2023/09/12 06:26:46;;;;;;;36.33;28.83;;;19.70;99.90;;;;;;4841486;29;20428;-89
2023/09/12 06:29:13;;;;;;;37.10;30.50;;;19.80;99.90;;;;;;4841729;29;20521;-89
2023/09/12 06:31:41;;;;;;;42.00;32.20;;;19.90;99.90;;;;;;4842907;29;20196;-89
2023/09/12 06:34:07;;;;;;;40.97;29.03;;;19.90;99.90;;;;;;4808545;29;20508;-89
2023/09/12 06:36:33;;;;;;;36.33;29.03;;;19.90;99.90;;;;;;4839091;29;20442;-89
2023/09/12 06:38:59;;;;;;;38.80;30.17;;;19.90;99.90;;;;;;4823328;29;20811;-90
2023/09/12 06:41:26;;;;;;;37.83;27.23;;;20.10;99.90;;;;;;4824119;29;20575;-89
2023/09/12 06:43:53;;;;;;;34.37;26.70;;;20.10;99.90;;;;;;4824039;29;20767;-92
2023/09/12 06:46:18;;;;;;;35.47;25.27;;;20.30;99.90;;;;;;4838493;29;20409;-92
2023/09/12 06:48:45;;;;;;;32.00;25.87;;;20.20;99.90;;;;;;4827544;29;20847;-90
2023/09/12 06:51:11;;;;;;;28.70;23.80;;;20.50;99.90;;;;;;4820782;29;20420;-90
2023/09/12 06:53:37;;;;;;;27.50;22.57;;;20.50;99.90;;;;;;4824710;29;21007;-90
2023/09/12 06:56:03;;;;;;;27.17;21.23;;;20.40;99.90;;;;;;4823425;29;20444;-90
2023/09/12 06:58:29;;;;;;;22.90;20.40;;;20.50;99.90;;;;;;4842030;29;20185;-90
2023/09/12 07:00:54;;;;;;;26.60;20.90;;;20.50;99.90;;;;;;4841565;29;20480;-90
2023/09/12 07:03:21;;;;;;;23.70;19.60;;;20.50;99.90;;;;;;4840993;29;20291;-90
2023/09/12 07:05:46;;;;;;;24.73;19.37;;;20.50;99.90;;;;;;4841876;29;20189;-84
2023/09/12 07:08:12;;;;;;;25.17;20.53;;;20.70;99.90;;;;;;4844784;29;20469;-84
2023/09/12 07:10:43;;;;;;;25.27;19.53;;;20.70;99.90;;;;;;4843566;29;20185;-84
2023/09/12 07:13:08;;;;;;;22.23;19.33;;;20.80;99.90;;;;;;4859438;29;20404;-84
2023/09/12 07:15:36;;;;;;;21.00;18.37;;;20.90;99.90;;;;;;4839264;29;20473;-83
2023/09/12 07:18:02;;;;;;;18.20;16.33;;;21.00;99.90;;;;;;4809632;29;20197;-83
2023/09/12 07:20:27;;;;;;;17.30;14.70;;;21.00;99.90;;;;;;4811343;29;20582;-83
2023/09/12 07:22:53;;;;;;;14.70;12.93;;;21.10;99.90;;;;;;4825607;29;20432;-83
2023/09/12 07:25:20;;;;;;;14.53;12.17;;;21.20;99.90;;;;;;4795134;29;20570;-83
2023/09/12 07:27:46;;;;;;;14.80;10.77;;;21.20;99.90;;;;;;4810652;29;20193;-83
2023/09/12 07:30:12;;;;;;;13.33;10.73;;;21.20;99.90;;;;;;4810347;29;20911;-83
2023/09/12 07:32:37;;;;;;;12.30;10.47;;;21.20;99.90;;;;;;4810169;29;20218;-83
2023/09/12 07:35:03;;;;;;;11.33;10.13;;;21.30;99.90;;;;;;4826833;29;20185;-83
2023/09/12 07:37:29;;;;;;;10.50;9.50;;;21.20;99.90;;;;;;4837695;29;20495;-83
2023/09/12 07:39:54;;;;;;;10.90;9.70;;;21.20;99.90;;;;;;4842942;29;20485;-83
2023/09/12 07:42:24;;;;;;;10.20;8.50;;;21.30;99.90;;;;;;4834216;29;20358;-84
2023/09/12 07:44:49;;;;;;;9.23;8.30;;;21.50;99.90;;;;;;4825360;29;20217;-83
2023/09/12 07:47:15;;;;;;;11.20;8.03;;;21.60;99.90;;;;;;4825503;29;20461;-84
2023/09/12 07:49:41;;;;;;;17.33;8.17;;;21.70;99.90;;;;;;4832994;29;20196;-84
2023/09/12 07:52:07;;;;;;;11.57;9.17;;;21.80;99.90;;;;;;4823819;29;20197;-84
2023/09/12 07:54:32;;;;;;;10.03;9.10;;;21.90;99.90;;;;;;4824926;29;20192;-83
2023/09/12 07:56:58;;;;;;;14.90;9.90;;;21.90;99.90;;;;;;4826291;29;20475;-83
2023/09/12 07:59:24;;;;;;;13.77;12.47;;;21.80;99.90;;;;;;4826803;29;20216;-83
2023/09/12 08:01:51;;;;;;;10.50;9.60;;;21.90;99.90;;;;;;4842813;29;20288;-83
2023/09/12 08:04:17;;;;;;;10.27;9.27;;;22.00;99.90;;;;;;4843355;29;20412;-83
2023/09/12 08:06:42;;;;;;;11.93;9.80;;;22.00;99.90;;;;;;4844744;29;20393;-83
2023/09/12 08:09:09;;;;;;;10.10;9.20;;;22.10;99.90;;;;;;4828054;29;20408;-84
2023/09/12 08:11:35;;;;;;;9.80;9.00;;;22.20;99.90;;;;;;4844570;29;20192;-84
2023/09/12 08:14:01;;;;;;;9.27;8.37;;;22.20;99.90;;;;;;4858721;29;20786;-83
2023/09/12 08:16:26;;;;;;;12.13;9.60;;;22.30;99.90;;;;;;4842321;29;20250;-89
2023/09/12 08:18:52;;;;;;;9.47;8.47;;;22.30;99.90;;;;;;4841749;29;20212;-88
2023/09/12 08:21:18;;;;;;;19.07;8.63;;;22.40;99.90;;;;;;4844636;29;20192;-88
2023/09/12 08:23:43;;;;;;;10.80;8.60;;;22.40;99.90;;;;;;4827342;29;20188;-88
2023/09/12 08:26:11;;;;;;;8.87;7.97;;;22.40;99.90;;;;;;4812792;29;20233;-91
2023/09/12 08:28:36;;;;;;;10.13;9.13;;;22.50;99.90;;;;;;4843269;29;20185;-88
2023/09/12 08:31:02;;;;;;;8.97;8.10;;;22.60;99.90;;;;;;4824454;29;20442;-88
2023/09/12 08:33:28;;;;;;;8.77;7.23;;;22.80;99.90;;;;;;4825656;29;20193;-91
2023/09/12 08:35:53;;;;;;;7.87;7.27;;;23.10;99.90;;;;;;4809348;29;20910;-88
2023/09/12 08:38:19;;;;;;;8.63;7.73;;;23.20;99.90;;;;;;4809461;29;20193;-89
2023/09/12 08:40:50;;;;;;;8.07;6.50;;;23.60;99.90;;;;;;4825095;29;20225;-89
2023/09/12 08:43:16;;;;;;;7.37;6.67;;;23.70;99.90;;;;;;4824750;29;20193;-89
2023/09/12 08:45:44;;;;;;;6.97;6.20;;;23.90;99.90;;;;;;4823719;29;20438;-89
2023/09/12 08:48:11;;;;;;;6.13;5.57;;;24.20;99.90;;;;;;4825486;29;20445;-89
2023/09/12 08:50:37;;;;;;;6.50;5.90;;;23.90;99.90;;;;;;4830738;29;20864;-91
2023/09/12 08:53:03;;;;;;;6.17;5.40;;;24.10;99.90;;;;;;4811987;29;20446;-90
2023/09/12 08:55:29;;;;;;;6.20;5.30;;;24.60;99.90;;;;;;4824302;29;20419;-91
2023/09/12 08:57:55;;;;;;;5.90;5.30;;;24.60;99.90;;;;;;4837516;29;20529;-90
2023/09/12 09:00:23;;;;;;;5.00;4.50;;;24.90;99.90;;;;;;4841481;29;20280;-91
2023/09/12 09:02:49;;;;;;;5.17;4.67;;;25.10;99.90;;;;;;4842392;29;20450;-89
2023/09/12 09:05:16;;;;;;;6.50;5.90;;;25.30;99.90;;;;;;4842971;29;20906;-91
2023/09/12 09:07:42;;;;;;;7.97;7.17;;;25.30;99.90;;;;;;4841911;29;20418;-88
2023/09/12 09:10:14;;;;;;;7.43;6.00;;;24.70;99.90;;;;;;4844686;29;20879;-92
2023/09/12 09:12:45;;;;;;;11.47;7.53;;;24.60;99.90;;;;;;4843607;29;20430;-91
2023/09/12 09:15:27;;;;;;;11.60;6.97;;;24.20;99.90;;;;;;4843411;29;20400;-90
2023/09/12 09:18:00;;;;;;;11.83;7.20;;;23.90;99.90;;;;;;4843730;29;20873;-88
2023/09/12 09:20:34;;;;;;;7.77;6.43;;;23.70;99.90;;;;;;4843358;29;20492;-92
2023/09/12 09:23:04;;;;;;;9.80;6.63;;;24.00;99.90;;;;;;4842187;29;20449;-92
2023/09/12 09:25:31;;;;;;;8.13;7.33;;;24.30;99.90;;;;;;4842752;29;20449;-90
2023/09/12 09:27:56;;;;;;;6.60;6.10;;;24.10;99.90;;;;;;4827110;29;20498;-88
2023/09/12 09:30:41;;;;;;;6.53;5.83;;;24.40;99.90;;;;;;4842164;29;20461;-90
2023/09/12 09:33:07;;;;;;;5.23;4.73;;;24.60;99.90;;;;;;4842169;29;20189;-90
2023/09/12 09:35:33;;;;;;;4.90;4.50;;;25.10;99.90;;;;;;4842253;29;20486;-90
2023/09/12 09:37:59;;;;;;;7.33;5.10;;;25.10;99.90;;;;;;4827489;29;20437;-89
2023/09/12 09:40:25;;;;;;;6.70;6.00;;;24.90;99.90;;;;;;4841652;29;20477;-90
2023/09/12 09:43:02;;;;;;;8.43;6.47;;;25.00;99.90;;;;;;4843190;29;20662;-90
2023/09/12 09:45:32;;;;;;;7.67;6.33;;;24.90;99.90;;;;;;4842267;29;20911;-89
2023/09/12 09:48:06;;;;;;;7.30;6.60;;;24.90;99.90;;;;;;4841605;29;20411;-91
2023/09/12 09:50:36;;;;;;;11.60;6.70;;;24.70;99.90;;;;;;4828807;29;20897;-91
2023/09/12 09:53:04;;;;;;;10.30;6.43;;;24.80;99.90;;;;;;4843324;29;20425;-90
2023/09/12 09:55:30;;;;;;;6.87;6.33;;;25.60;99.90;;;;;;4842055;29;20425;-92
2023/09/12 09:57:56;;;;;;;7.40;5.50;;;26.10;99.90;;;;;;4841741;29;21009;-86
2023/09/12 10:00:23;;;;;;;5.87;5.30;;;26.60;99.90;;;;;;4843209;29;20232;-90
2023/09/12 10:02:51;;;;;;;7.53;5.57;;;26.90;99.90;;;;;;4842321;29;20220;-90
2023/09/12 10:05:17;;;;;;;6.40;5.13;;;26.90;99.90;;;;;;4843092;29;20426;-91
2023/09/12 10:07:47;;;;;;;7.93;5.60;;;26.80;99.90;;;;;;4841422;29;20836;-90
2023/09/12 10:10:13;;;;;;;7.23;4.83;;;26.90;99.90;;;;;;4841329;29;20483;-84
2023/09/12 10:12:48;;;;;;;6.70;5.23;;;27.40;99.90;;;;;;4841306;29;20494;-86
2023/09/12 10:15:15;;;;;;;7.10;5.03;;;27.30;99.90;;;;;;4841005;29;20433;-87
2023/09/12 10:17:46;;;;;;;7.07;4.27;;;27.00;99.90;;;;;;4826208;29;20426;-87
2023/09/12 10:20:18;;;;;;;3.90;3.53;;;26.80;99.90;;;;;;4840546;29;20470;-86
2023/09/12 10:22:52;;;;;;;3.17;2.87;;;26.90;99.90;;;;;;4841380;29;20422;-86
2023/09/12 10:25:17;;;;;;;8.97;5.20;;;27.60;99.90;;;;;;4842377;29;20799;-86
2023/09/12 10:27:43;;;;;;;4.37;3.73;;;27.80;99.90;;;;;;4825864;29;20425;-86
2023/09/12 10:30:10;;;;;;;5.10;3.97;;;28.10;99.90;;;;;;4838928;29;20204;-87
2023/09/12 10:32:37;;;;;;;4.50;3.40;;;28.20;99.90;;;;;;4816901;29;20561;-87
2023/09/12 10:35:03;;;;;;;5.60;4.53;;;28.00;99.90;;;;;;4825195;29;20434;-89
2023/09/12 10:37:32;;;;;;;4.10;3.70;;;28.20;99.90;;;;;;4829002;29;20474;-86
2023/09/12 10:40:00;;;;;;;3.63;2.83;;;28.20;99.90;;;;;;4840563;29;20476;-86
2023/09/12 10:42:28;;;;;;;3.57;3.27;;;28.40;99.90;;;;;;4832397;29;20439;-86
2023/09/12 10:44:55;;;;;;;6.17;3.63;;;28.80;99.90;;;;;;4823703;29;20478;-86
2023/09/12 10:47:21;;;;;;;3.63;3.33;;;28.80;99.90;;;;;;4844087;29;20761;-86
2023/09/12 10:49:48;;;;;;;4.07;3.50;;;28.00;99.90;;;;;;4844336;29;20433;-85
2023/09/12 10:52:27;;;;;;;3.97;3.17;;;28.40;99.90;;;;;;4849804;29;20446;-86
2023/09/12 10:54:53;;;;;;;5.60;4.17;;;28.80;99.90;;;;;;4832317;29;20439;-84
2023/09/12 10:57:19;;;;;;;4.63;4.13;;;28.30;99.90;;;;;;4842158;29;21402;-86
2023/09/12 11:00:10;;;;;;;4.10;3.70;;;28.40;99.90;;;;;;4828722;29;20224;-87
2023/09/12 11:02:37;;;;;;;5.13;3.60;;;28.30;99.90;;;;;;4844481;29;20442;-87
2023/09/12 11:05:07;;;;;;;6.80;4.47;;;28.60;99.90;;;;;;4844428;29;21018;-87
2023/09/12 11:07:33;;;;;;;6.60;4.33;;;28.00;99.90;;;;;;4845423;29;20414;-86
2023/09/12 11:10:20;;;;;;;4.30;3.83;;;28.20;99.90;;;;;;4844209;29;20510;-87
2023/09/12 11:12:51;;;;;;;8.67;5.40;;;28.20;99.90;;;;;;4844300;29;20456;-86
2023/09/12 11:15:17;;;;;;;5.50;5.00;;;28.40;99.90;;;;;;4843940;29;20438;-86
2023/09/12 11:17:49;;;;;;;5.67;5.03;;;27.60;99.90;;;;;;4844152;29;20457;-86
2023/09/12 11:20:16;;;;;;;5.03;4.53;;;28.60;99.90;;;;;;4845148;29;20497;-86
2023/09/12 11:22:46;;;;;;;5.27;4.70;;;29.00;99.90;;;;;;4843850;29;20967;-86
2023/09/12 11:25:15;;;;;;;5.63;4.83;;;28.70;99.90;;;;;;4843952;29;20832;-85
2023/09/12 11:27:46;;;;;;;7.03;5.13;;;28.90;99.90;;;;;;4843578;29;20446;-85
2023/09/12 11:30:12;;;;;;;8.17;5.50;;;29.10;99.90;;;;;;4843471;29;20471;-86
2023/09/12 11:32:38;;;;;;;6.33;5.80;;;29.10;99.90;;;;;;4843660;29;20434;-86
2023/09/12 11:35:08;;;;;;;5.70;5.17;;;28.90;99.90;;;;;;4858705;29;20957;-86
2023/09/12 11:37:36;;;;;;;6.43;5.40;;;29.30;99.90;;;;;;4843782;29;20221;-86
2023/09/12 11:40:23;;;;;;;7.40;5.43;;;29.60;99.90;;;;;;4858918;29;20526;-89
2023/09/12 11:42:49;;;;;;;6.30;5.70;;;29.40;99.90;;;;;;4827985;29;20471;-86
2023/09/12 11:45:18;;;;;;;6.67;5.60;;;29.20;99.90;;;;;;4858728;29;20950;-86
2023/09/12 11:47:45;;;;;;;7.00;5.57;;;29.60;99.90;;;;;;4843776;29;20506;-85
2023/09/12 11:50:31;;;;;;;6.33;5.30;;;29.70;99.90;;;;;;4858653;29;20470;-85
2023/09/12 11:53:05;;;;;;;7.63;6.67;;;30.00;99.90;;;;;;4858741;29;20935;-86
2023/09/12 11:55:35;;;;;;;7.27;5.97;;;30.00;99.90;;;;;;4843213;29;20483;-86
2023/09/12 11:58:00;;;;;;;7.03;5.87;;;30.40;99.90;;;;;;4842908;29;20831;-86
2023/09/12 12:00:27;;;;;;;7.97;7.13;;;30.70;99.90;;;;;;4858468;29;20484;-88
2023/09/12 12:02:55;;;;;;;8.27;7.47;;;30.90;99.90;;;;;;4843412;29;20197;-87
2023/09/12 12:05:22;;;;;;;9.20;8.00;;;30.50;99.90;;;;;;4843021;29;20542;-88
2023/09/12 12:07:48;;;;;;;7.97;7.20;;;30.30;99.90;;;;;;4858463;29;20440;-88
2023/09/12 12:10:14;;;;;;;7.67;6.97;;;30.20;99.90;;;;;;4844146;29;20421;-89
2023/09/12 12:12:42;;;;;;;7.43;6.70;;;30.60;99.90;;;;;;4842877;29;20923;-87
2023/09/12 12:15:13;;;;;;;6.60;5.90;;;29.80;99.90;;;;;;4842876;29;20461;-87
2023/09/12 12:17:42;;;;;;;7.33;6.50;;;30.10;99.90;;;;;;4858177;29;21006;-86
2023/09/12 12:20:10;;;;;;;8.70;7.10;;;30.40;99.90;;;;;;4857702;29;20485;-86
2023/09/12 12:22:41;;;;;;;7.80;7.00;;;30.70;99.90;;;;;;4842623;29;20475;-86
2023/09/12 12:25:09;;;;;;;7.33;6.63;;;30.70;99.90;;;;;;4842377;29;20441;-87
2023/09/12 12:27:42;;;;;;;8.50;7.23;;;30.40;99.90;;;;;;4812402;29;20442;-86
2023/09/12 12:30:14;;;;;;;7.50;6.70;;;30.20;99.90;;;;;;4842671;29;20458;-87
2023/09/12 12:32:46;;;;;;;9.23;7.63;;;30.10;99.90;;;;;;4843918;29;20482;-86
2023/09/12 12:35:21;;;;;;;8.03;7.33;;;29.60;99.90;;;;;;4842488;29;20434;-86
2023/09/12 12:37:49;;;;;;;8.20;7.33;;;29.60;99.90;;;;;;4843922;29;20414;-86
2023/09/12 12:40:16;;;;;;;11.37;7.57;;;29.70;99.90;;;;;;4827160;29;20476;-86
2023/09/12 12:42:43;;;;;;;9.87;7.50;;;29.50;99.90;;;;;;4827440;29;20941;-86
2023/09/12 12:45:12;;;;;;;9.23;8.30;;;29.20;99.90;;;;;;4842392;29;20430;-86
2023/09/12 12:47:38;;;;;;;7.53;6.60;;;29.20;99.90;;;;;;4843473;29;20978;-85
2023/09/12 12:50:11;;;;;;;8.33;7.63;;;29.40;99.90;;;;;;4842139;29;20574;-86
2023/09/12 12:52:37;;;;;;;9.43;7.03;;;29.70;99.90;;;;;;4842203;29;20276;-86
2023/09/12 12:55:10;;;;;;;8.13;7.33;;;29.70;99.90;;;;;;4827137;29;20779;-86
2023/09/12 12:57:41;;;;;;;8.03;7.07;;;29.40;99.90;;;;;;4843189;29;20474;-86
2023/09/12 13:00:11;;;;;;;7.80;7.10;;;29.20;99.90;;;;;;4842434;29;20484;-85
2023/09/12 13:02:38;;;;;;;7.93;6.90;;;29.30;99.90;;;;;;4842116;29;20490;-85
2023/09/12 13:05:07;;;;;;;7.17;6.50;;;29.20;99.90;;;;;;4842971;29;20410;-86
2023/09/12 13:07:35;;;;;;;6.67;5.97;;;29.60;99.90;;;;;;4827815;29;20422;-85
2023/09/12 13:10:02;;;;;;;7.33;6.63;;;29.50;99.90;;;;;;4842178;29;20785;-86
2023/09/12 13:12:27;;;;;;;7.40;6.40;;;29.80;99.90;;;;;;4826577;29;20453;-86
2023/09/12 13:14:53;;;;;;;6.50;5.90;;;29.80;99.90;;;;;;4826974;29;20434;-86
2023/09/12 13:17:19;;;;;;;9.80;6.33;;;30.00;99.90;;;;;;4811260;29;20422;-86
2023/09/12 13:19:45;;;;;;;7.50;6.63;;;30.40;99.90;;;;;;4842037;29;20576;-86
2023/09/12 13:22:10;;;;;;;7.90;7.20;;;30.40;99.90;;;;;;4811650;29;20558;-86
2023/09/12 13:24:36;;;;;;;7.73;7.03;;;30.70;99.90;;;;;;4842008;29;20418;-86
2023/09/12 13:27:02;;;;;;;7.83;7.03;;;30.60;99.90;;;;;;4826545;29;20199;-86
2023/09/12 13:29:27;;;;;;;8.50;7.70;;;30.40;99.90;;;;;;4826452;29;20249;-87